Bookmark and Share
Track history (hours):
 

]idnight River

Last reported at 2014-Apr-17 07:31 UTC. Time now 2014-Apr-20 20:58 UTC.
Position N 18°11' W 063°31'.

MMSI: 352319000.

NotesDate/timePositionNaut miles runAvg speedWind from/ knotsBaromVisibWave heightAir tempDewpointWater temp
2014-Apr-17 07:31N 18°11' W 063°31'9 9.4
2014-Apr-17 06:33N 18°09' W 063°22'11 9.5
2014-Apr-17 05:24N 18°06' W 063°11'5 5.5
2014-Apr-17 04:25N 18°05' W 063°05'0 0.0
2014-Apr-17 03:21N 18°05' W 063°05'0 0.0
2014-Apr-17 02:33N 18°05' W 063°05'0 0.0
2014-Apr-17 01:23N 18°05' W 063°05'4 3.2
2014-Apr-17 00:14N 18°05' W 063°09'17 9.6
2014-Apr-16 22:30N 17°49' W 063°13'9 9.6
2014-Apr-16 21:32N 17°40' W 063°15'18 1.0
2014-Apr-16 03:07N 17°53' W 063°02'8 2.1
2014-Apr-15 23:14N 18°01' W 063°03'1 0.1
2014-Apr-15 12:33N 17°60' W 063°03'6 1.2
2014-Apr-15 07:31N 18°02' W 063°08'4 3.9
2014-Apr-15 06:31N 18°05' W 063°05'0 0.0
2014-Apr-15 05:29N 18°05' W 063°05'5 0.9
2014-Apr-14 23:31N 18°08' W 063°10'22 0.5
2014-Apr-13 04:09N 18°08' W 063°33'6 9.6
2014-Apr-13 03:33N 18°07' W 063°27'9 9.4
2014-Apr-13 02:33N 18°06' W 063°17'11 9.4
2014-Apr-13 01:20N 18°05' W 063°05'0 0.1
2014-Apr-13 00:14N 18°05' W 063°05'0 0.0
2014-Apr-12 23:32N 18°05' W 063°05'0 0.0
2014-Apr-12 22:29N 18°05' W 063°05'0 0.0
2014-Apr-12 21:33N 18°05' W 063°05'0 0.0
2014-Apr-12 20:31N 18°05' W 063°05'0 0.0
2014-Apr-12 19:33N 18°05' W 063°05'0 0.0
2014-Apr-12 18:32N 18°05' W 063°05'0 0.0
2014-Apr-12 17:33N 18°05' W 063°05'6 6.2
2014-Apr-12 16:33N 18°06' W 063°12'9 8.6
2014-Apr-12 15:33N 18°06' W 063°21'8 8.2
2014-Apr-12 14:31N 18°07' W 063°29'  
2014-Apr-10 06:31N 18°10' W 063°29'9 9.2
2014-Apr-10 05:33N 18°08' W 063°20'11 9.2
2014-Apr-10 04:25N 18°06' W 063°09'4 3.8
2014-Apr-10 03:26N 18°05' W 063°05'0 0.0
2014-Apr-10 02:30N 18°05' W 063°05'0 0.0
2014-Apr-10 01:32N 18°05' W 063°05'1 0.8
2014-Apr-10 00:32N 18°05' W 063°06'9 7.9
2014-Apr-09 23:23N 17°58' W 063°11'9 9.7
2014-Apr-09 22:26N 17°48' W 063°13'9 9.6
2014-Apr-09 21:32N 17°40' W 063°15'14 1.4
2014-Apr-09 11:32N 17°51' W 063°06'10 8.6
2014-Apr-09 10:20N 18°00' W 063°09'5 6.8
2014-Apr-09 09:32N 18°05' W 063°06'1 0.9
2014-Apr-09 08:20N 18°05' W 063°05'0 0.0
2014-Apr-09 07:30N 18°05' W 063°05'8 8.3
2014-Apr-09 06:33N 18°07' W 063°13'9 8.7
2014-Apr-09 05:32N 18°09' W 063°22'7 0.3
2014-Apr-08 04:33N 18°08' W 063°29'10 9.6
2014-Apr-08 03:33N 18°07' W 063°19'10 9.8
2014-Apr-08 02:33N 18°05' W 063°09'4 3.7
2014-Apr-08 01:31N 18°05' W 063°05'0 0.1
2014-Apr-08 00:29N 18°05' W 063°05'7 7.6
2014-Apr-07 23:31N 18°11' W 063°10'  

Dump ship's entire track history

sailing weather and tide predictions

]idnight River — HP7399 — position and weather